sensor_id;sensor_type;location;lat;lon;timestamp;P1;durP1;ratioP1;P2;durP2;ratioP2
51286;SDS011;37364;46.974;18.916;2023-09-07T00:01:42;5.47;;;3.72;;
51286;SDS011;37364;46.974;18.916;2023-09-07T00:04:13;4.15;;;3.75;;
51286;SDS011;37364;46.974;18.916;2023-09-07T00:06:43;6.60;;;4.00;;
51286;SDS011;37364;46.974;18.916;2023-09-07T00:09:16;6.07;;;3.95;;
51286;SDS011;37364;46.974;18.916;2023-09-07T00:11:48;11.95;;;4.22;;
51286;SDS011;37364;46.974;18.916;2023-09-07T00:14:19;15.50;;;4.53;;
51286;SDS011;37364;46.974;18.916;2023-09-07T00:16:49;5.72;;;4.50;;
51286;SDS011;37364;46.974;18.916;2023-09-07T00:19:20;7.55;;;4.60;;
51286;SDS011;37364;46.974;18.916;2023-09-07T00:21:51;9.48;;;4.55;;
51286;SDS011;37364;46.974;18.916;2023-09-07T00:24:24;7.10;;;4.53;;
51286;SDS011;37364;46.974;18.916;2023-09-07T00:26:54;7.72;;;5.22;;
51286;SDS011;37364;46.974;18.916;2023-09-07T00:29:25;8.43;;;4.88;;
51286;SDS011;37364;46.974;18.916;2023-09-07T00:31:55;6.88;;;4.45;;
51286;SDS011;37364;46.974;18.916;2023-09-07T00:34:26;10.98;;;4.60;;
51286;SDS011;37364;46.974;18.916;2023-09-07T00:36:56;9.30;;;4.75;;
51286;SDS011;37364;46.974;18.916;2023-09-07T00:39:30;8.63;;;4.43;;
51286;SDS011;37364;46.974;18.916;2023-09-07T00:42:00;6.15;;;4.50;;
51286;SDS011;37364;46.974;18.916;2023-09-07T00:44:31;7.00;;;4.45;;
51286;SDS011;37364;46.974;18.916;2023-09-07T00:47:01;8.55;;;4.40;;
51286;SDS011;37364;46.974;18.916;2023-09-07T00:49:32;8.23;;;5.50;;
51286;SDS011;37364;46.974;18.916;2023-09-07T00:52:03;6.03;;;4.43;;
51286;SDS011;37364;46.974;18.916;2023-09-07T00:54:37;11.32;;;4.53;;
51286;SDS011;37364;46.974;18.916;2023-09-07T00:57:08;10.68;;;5.38;;
51286;SDS011;37364;46.974;18.916;2023-09-07T00:59:39;13.57;;;5.30;;
51286;SDS011;37364;46.974;18.916;2023-09-07T01:02:09;7.95;;;5.20;;
51286;SDS011;37364;46.974;18.916;2023-09-07T01:04:40;6.85;;;4.53;;
51286;SDS011;37364;46.974;18.916;2023-09-07T01:07:13;13.43;;;4.80;;
51286;SDS011;37364;46.974;18.916;2023-09-07T01:09:51;7.35;;;4.80;;
51286;SDS011;37364;46.974;18.916;2023-09-07T01:12:26;6.80;;;4.97;;
51286;SDS011;37364;46.974;18.916;2023-09-07T01:14:57;5.78;;;4.68;;
51286;SDS011;37364;46.974;18.916;2023-09-07T01:17:31;9.02;;;4.93;;
51286;SDS011;37364;46.974;18.916;2023-09-07T01:20:04;10.23;;;5.03;;
51286;SDS011;37364;46.974;18.916;2023-09-07T01:22:39;8.02;;;4.90;;
51286;SDS011;37364;46.974;18.916;2023-09-07T01:25:11;6.18;;;4.78;;
51286;SDS011;37364;46.974;18.916;2023-09-07T01:27:41;8.63;;;5.30;;
51286;SDS011;37364;46.974;18.916;2023-09-07T01:30:12;10.82;;;5.28;;
51286;SDS011;37364;46.974;18.916;2023-09-07T01:32:43;9.07;;;4.78;;
51286;SDS011;37364;46.974;18.916;2023-09-07T01:35:16;4.90;;;4.22;;
51286;SDS011;37364;46.974;18.916;2023-09-07T01:37:51;7.22;;;5.07;;
51286;SDS011;37364;46.974;18.916;2023-09-07T01:40:22;9.75;;;5.38;;
51286;SDS011;37364;46.974;18.916;2023-09-07T01:42:52;7.07;;;5.10;;
51286;SDS011;37364;46.974;18.916;2023-09-07T01:45:23;8.23;;;5.22;;
51286;SDS011;37364;46.974;18.916;2023-09-07T01:47:54;7.13;;;4.65;;
51286;SDS011;37364;46.974;18.916;2023-09-07T01:50:25;8.75;;;5.03;;
51286;SDS011;37364;46.974;18.916;2023-09-07T01:52:58;6.72;;;5.25;;
51286;SDS011;37364;46.974;18.916;2023-09-07T01:55:30;10.40;;;5.65;;
51286;SDS011;37364;46.974;18.916;2023-09-07T01:58:01;8.13;;;5.50;;
51286;SDS011;37364;46.974;18.916;2023-09-07T02:00:35;11.90;;;5.28;;
51286;SDS011;37364;46.974;18.916;2023-09-07T02:03:07;8.57;;;5.35;;
51286;SDS011;37364;46.974;18.916;2023-09-07T02:05:38;11.88;;;5.18;;
51286;SDS011;37364;46.974;18.916;2023-09-07T02:08:12;7.93;;;5.32;;
51286;SDS011;37364;46.974;18.916;2023-09-07T02:10:42;8.05;;;4.38;;
51286;SDS011;37364;46.974;18.916;2023-09-07T02:13:13;7.90;;;5.03;;
51286;SDS011;37364;46.974;18.916;2023-09-07T02:15:44;8.23;;;5.47;;
51286;SDS011;37364;46.974;18.916;2023-09-07T02:18:16;9.75;;;5.60;;
51286;SDS011;37364;46.974;18.916;2023-09-07T02:20:46;6.53;;;5.38;;
51286;SDS011;37364;46.974;18.916;2023-09-07T02:23:20;6.13;;;5.50;;
51286;SDS011;37364;46.974;18.916;2023-09-07T02:28:20;10.13;;;5.88;;
51286;SDS011;37364;46.974;18.916;2023-09-07T02:30:51;8.10;;;5.45;;
51286;SDS011;37364;46.974;18.916;2023-09-07T02:33:22;8.02;;;5.53;;
51286;SDS011;37364;46.974;18.916;2023-09-07T02:35:52;10.75;;;4.70;;
51286;SDS011;37364;46.974;18.916;2023-09-07T02:38:26;12.60;;;5.50;;
51286;SDS011;37364;46.974;18.916;2023-09-07T02:40:58;11.48;;;6.00;;
51286;SDS011;37364;46.974;18.916;2023-09-07T02:43:29;6.40;;;5.10;;
51286;SDS011;37364;46.974;18.916;2023-09-07T02:45:59;11.98;;;5.88;;
51286;SDS011;37364;46.974;18.916;2023-09-07T02:48:30;10.63;;;5.45;;
51286;SDS011;37364;46.974;18.916;2023-09-07T02:51:01;12.15;;;6.03;;
51286;SDS011;37364;46.974;18.916;2023-09-07T02:53:35;7.68;;;5.18;;
51286;SDS011;37364;46.974;18.916;2023-09-07T02:56:05;7.00;;;5.10;;
51286;SDS011;37364;46.974;18.916;2023-09-07T02:58:39;16.52;;;5.63;;
51286;SDS011;37364;46.974;18.916;2023-09-07T03:01:09;17.35;;;6.07;;
51286;SDS011;37364;46.974;18.916;2023-09-07T03:03:40;6.50;;;5.25;;
51286;SDS011;37364;46.974;18.916;2023-09-07T03:06:11;11.70;;;5.78;;
51286;SDS011;37364;46.974;18.916;2023-09-07T03:08:49;8.57;;;5.50;;
51286;SDS011;37364;46.974;18.916;2023-09-07T03:11:19;7.30;;;5.13;;
51286;SDS011;37364;46.974;18.916;2023-09-07T03:13:50;8.00;;;6.05;;
51286;SDS011;37364;46.974;18.916;2023-09-07T03:16:20;10.85;;;5.70;;
51286;SDS011;37364;46.974;18.916;2023-09-07T03:18:51;11.13;;;6.93;;
51286;SDS011;37364;46.974;18.916;2023-09-07T03:21:21;13.63;;;6.47;;
51286;SDS011;37364;46.974;18.916;2023-09-07T03:23:59;13.75;;;6.25;;
51286;SDS011;37364;46.974;18.916;2023-09-07T03:26:31;12.13;;;6.57;;
51286;SDS011;37364;46.974;18.916;2023-09-07T03:29:02;10.93;;;6.43;;
51286;SDS011;37364;46.974;18.916;2023-09-07T03:31:32;10.43;;;7.13;;
51286;SDS011;37364;46.974;18.916;2023-09-07T03:34:03;16.15;;;7.05;;
51286;SDS011;37364;46.974;18.916;2023-09-07T03:36:34;7.07;;;5.43;;
51286;SDS011;37364;46.974;18.916;2023-09-07T03:39:09;5.63;;;4.18;;
51286;SDS011;37364;46.974;18.916;2023-09-07T03:41:39;8.57;;;3.42;;
51286;SDS011;37364;46.974;18.916;2023-09-07T03:44:10;4.60;;;2.95;;
51286;SDS011;37364;46.974;18.916;2023-09-07T03:46:41;7.03;;;4.18;;
51286;SDS011;37364;46.974;18.916;2023-09-07T03:49:11;5.43;;;3.55;;
51286;SDS011;37364;46.974;18.916;2023-09-07T03:51:42;5.45;;;3.28;;
51286;SDS011;37364;46.974;18.916;2023-09-07T03:54:15;4.65;;;3.15;;
51286;SDS011;37364;46.974;18.916;2023-09-07T03:56:46;3.78;;;3.38;;
51286;SDS011;37364;46.974;18.916;2023-09-07T03:59:17;3.45;;;3.15;;
51286;SDS011;37364;46.974;18.916;2023-09-07T04:01:47;4.05;;;3.13;;
51286;SDS011;37364;46.974;18.916;2023-09-07T04:04:18;3.80;;;3.45;;
51286;SDS011;37364;46.974;18.916;2023-09-07T04:06:48;4.18;;;2.83;;
51286;SDS011;37364;46.974;18.916;2023-09-07T04:09:21;4.28;;;3.28;;
51286;SDS011;37364;46.974;18.916;2023-09-07T04:11:53;3.10;;;2.72;;
51286;SDS011;37364;46.974;18.916;2023-09-07T04:14:24;7.57;;;3.25;;
51286;SDS011;37364;46.974;18.916;2023-09-07T04:16:55;5.57;;;2.95;;
51286;SDS011;37364;46.974;18.916;2023-09-07T04:19:26;4.47;;;2.88;;
51286;SDS011;37364;46.974;18.916;2023-09-07T04:21:56;4.90;;;2.75;;
51286;SDS011;37364;46.974;18.916;2023-09-07T04:24:31;4.37;;;3.20;;
51286;SDS011;37364;46.974;18.916;2023-09-07T04:27:03;4.80;;;3.05;;
51286;SDS011;37364;46.974;18.916;2023-09-07T04:29:34;4.35;;;2.92;;
51286;SDS011;37364;46.974;18.916;2023-09-07T04:32:04;5.68;;;2.53;;
51286;SDS011;37364;46.974;18.916;2023-09-07T04:34:35;4.53;;;3.10;;
51286;SDS011;37364;46.974;18.916;2023-09-07T04:37:06;3.83;;;2.92;;
51286;SDS011;37364;46.974;18.916;2023-09-07T04:39:42;4.00;;;3.35;;
51286;SDS011;37364;46.974;18.916;2023-09-07T04:42:12;4.82;;;3.30;;
51286;SDS011;37364;46.974;18.916;2023-09-07T04:44:43;3.78;;;3.03;;
51286;SDS011;37364;46.974;18.916;2023-09-07T04:47:14;3.95;;;3.10;;
51286;SDS011;37364;46.974;18.916;2023-09-07T04:49:48;5.13;;;2.85;;
51286;SDS011;37364;46.974;18.916;2023-09-07T04:52:21;3.00;;;2.45;;
51286;SDS011;37364;46.974;18.916;2023-09-07T04:54:54;3.05;;;2.15;;
51286;SDS011;37364;46.974;18.916;2023-09-07T04:57:25;3.33;;;2.72;;
51286;SDS011;37364;46.974;18.916;2023-09-07T04:59:55;5.15;;;3.38;;
51286;SDS011;37364;46.974;18.916;2023-09-07T05:02:25;4.85;;;2.83;;
51286;SDS011;37364;46.974;18.916;2023-09-07T05:04:57;4.45;;;2.88;;
51286;SDS011;37364;46.974;18.916;2023-09-07T05:07:27;3.55;;;2.28;;
51286;SDS011;37364;46.974;18.916;2023-09-07T05:10:00;4.63;;;3.13;;
51286;SDS011;37364;46.974;18.916;2023-09-07T05:12:31;5.70;;;2.72;;
51286;SDS011;37364;46.974;18.916;2023-09-07T05:15:01;3.67;;;3.03;;
51286;SDS011;37364;46.974;18.916;2023-09-07T05:17:36;4.53;;;3.00;;
51286;SDS011;37364;46.974;18.916;2023-09-07T05:20:07;2.92;;;2.65;;
51286;SDS011;37364;46.974;18.916;2023-09-07T05:22:39;4.10;;;3.03;;
51286;SDS011;37364;46.974;18.916;2023-09-07T05:25:12;4.05;;;2.40;;
51286;SDS011;37364;46.974;18.916;2023-09-07T05:27:43;4.90;;;3.00;;
51286;SDS011;37364;46.974;18.916;2023-09-07T05:32:46;4.93;;;2.83;;
51286;SDS011;37364;46.974;18.916;2023-09-07T05:35:17;3.97;;;3.03;;
51286;SDS011;37364;46.974;18.916;2023-09-07T05:37:48;4.28;;;2.78;;
51286;SDS011;37364;46.974;18.916;2023-09-07T05:40:21;4.03;;;2.70;;
51286;SDS011;37364;46.974;18.916;2023-09-07T05:42:51;2.45;;;2.25;;
51286;SDS011;37364;46.974;18.916;2023-09-07T05:45:24;7.10;;;3.05;;
51286;SDS011;37364;46.974;18.916;2023-09-07T05:47:55;5.55;;;2.95;;
51286;SDS011;37364;46.974;18.916;2023-09-07T05:50:26;10.52;;;3.85;;
51286;SDS011;37364;46.974;18.916;2023-09-07T05:52:56;4.45;;;2.83;;
51286;SDS011;37364;46.974;18.916;2023-09-07T05:55:29;3.42;;;2.22;;
51286;SDS011;37364;46.974;18.916;2023-09-07T05:58:04;3.13;;;2.75;;
51286;SDS011;37364;46.974;18.916;2023-09-07T06:00:39;4.45;;;2.55;;
51286;SDS011;37364;46.974;18.916;2023-09-07T06:03:10;2.83;;;1.90;;
51286;SDS011;37364;46.974;18.916;2023-09-07T06:05:41;3.20;;;2.58;;
51286;SDS011;37364;46.974;18.916;2023-09-07T06:08:12;3.53;;;2.47;;
51286;SDS011;37364;46.974;18.916;2023-09-07T06:10:45;5.63;;;2.75;;
51286;SDS011;37364;46.974;18.916;2023-09-07T06:13:16;3.45;;;2.60;;
51286;SDS011;37364;46.974;18.916;2023-09-07T06:15:48;4.80;;;2.95;;
51286;SDS011;37364;46.974;18.916;2023-09-07T06:18:19;4.28;;;2.75;;
51286;SDS011;37364;46.974;18.916;2023-09-07T06:20:50;3.17;;;2.75;;
51286;SDS011;37364;46.974;18.916;2023-09-07T06:23:20;7.90;;;2.90;;
51286;SDS011;37364;46.974;18.916;2023-09-07T06:25:54;3.92;;;3.38;;
51286;SDS011;37364;46.974;18.916;2023-09-07T06:28:25;4.20;;;2.95;;
51286;SDS011;37364;46.974;18.916;2023-09-07T06:30:56;5.97;;;2.75;;
51286;SDS011;37364;46.974;18.916;2023-09-07T06:33:27;5.20;;;3.50;;
51286;SDS011;37364;46.974;18.916;2023-09-07T06:35:59;3.42;;;2.75;;
51286;SDS011;37364;46.974;18.916;2023-09-07T06:41:05;10.63;;;3.10;;
51286;SDS011;37364;46.974;18.916;2023-09-07T06:43:37;5.38;;;2.05;;
51286;SDS011;37364;46.974;18.916;2023-09-07T06:46:09;3.70;;;2.75;;
51286;SDS011;37364;46.974;18.916;2023-09-07T06:48:39;3.25;;;2.20;;
51286;SDS011;37364;46.974;18.916;2023-09-07T06:51:12;4.85;;;2.47;;
51286;SDS011;37364;46.974;18.916;2023-09-07T06:53:43;6.00;;;2.30;;
51286;SDS011;37364;46.974;18.916;2023-09-07T06:56:27;2.85;;;2.53;;
51286;SDS011;37364;46.974;18.916;2023-09-07T06:59:00;6.13;;;2.55;;
51286;SDS011;37364;46.974;18.916;2023-09-07T07:01:31;3.78;;;2.55;;
51286;SDS011;37364;46.974;18.916;2023-09-07T07:04:04;11.88;;;2.20;;
51286;SDS011;37364;46.974;18.916;2023-09-07T07:06:35;5.78;;;2.08;;
51286;SDS011;37364;46.974;18.916;2023-09-07T07:09:06;5.25;;;2.85;;
51286;SDS011;37364;46.974;18.916;2023-09-07T07:11:40;2.85;;;2.08;;
51286;SDS011;37364;46.974;18.916;2023-09-07T07:14:10;3.05;;;2.42;;
51286;SDS011;37364;46.974;18.916;2023-09-07T07:16:43;2.33;;;2.08;;
51286;SDS011;37364;46.974;18.916;2023-09-07T07:19:13;2.05;;;1.85;;
51286;SDS011;37364;46.974;18.916;2023-09-07T07:21:43;3.63;;;2.60;;
51286;SDS011;37364;46.974;18.916;2023-09-07T07:24:14;1.95;;;1.75;;
51286;SDS011;37364;46.974;18.916;2023-09-07T07:26:48;3.65;;;2.60;;
51286;SDS011;37364;46.974;18.916;2023-09-07T07:29:19;3.70;;;2.40;;
51286;SDS011;37364;46.974;18.916;2023-09-07T07:31:50;2.50;;;2.05;;
51286;SDS011;37364;46.974;18.916;2023-09-07T07:34:20;4.07;;;2.63;;
51286;SDS011;37364;46.974;18.916;2023-09-07T07:36:54;4.45;;;2.67;;
51286;SDS011;37364;46.974;18.916;2023-09-07T07:39:25;2.78;;;2.35;;
51286;SDS011;37364;46.974;18.916;2023-09-07T07:41:58;4.07;;;2.67;;
51286;SDS011;37364;46.974;18.916;2023-09-07T07:44:30;3.55;;;2.65;;
51286;SDS011;37364;46.974;18.916;2023-09-07T07:47:00;5.93;;;2.85;;
51286;SDS011;37364;46.974;18.916;2023-09-07T07:49:33;5.23;;;2.40;;
51286;SDS011;37364;46.974;18.916;2023-09-07T07:52:04;2.95;;;2.30;;
51286;SDS011;37364;46.974;18.916;2023-09-07T07:57:10;2.63;;;2.42;;
51286;SDS011;37364;46.974;18.916;2023-09-07T07:59:44;2.92;;;1.95;;
51286;SDS011;37364;46.974;18.916;2023-09-07T08:02:17;2.47;;;1.75;;
51286;SDS011;37364;46.974;18.916;2023-09-07T08:04:48;4.72;;;2.63;;
51286;SDS011;37364;46.974;18.916;2023-09-07T08:07:20;3.40;;;2.05;;
51286;SDS011;37364;46.974;18.916;2023-09-07T08:09:50;3.22;;;2.03;;
51286;SDS011;37364;46.974;18.916;2023-09-07T08:12:24;2.58;;;1.98;;
51286;SDS011;37364;46.974;18.916;2023-09-07T08:14:55;3.53;;;2.28;;
51286;SDS011;37364;46.974;18.916;2023-09-07T08:17:26;2.42;;;2.17;;
51286;SDS011;37364;46.974;18.916;2023-09-07T08:19:59;3.00;;;1.93;;
51286;SDS011;37364;46.974;18.916;2023-09-07T08:22:30;4.68;;;2.92;;
51286;SDS011;37364;46.974;18.916;2023-09-07T08:25:08;7.38;;;1.85;;
51286;SDS011;37364;46.974;18.916;2023-09-07T08:27:44;1.65;;;1.50;;
51286;SDS011;37364;46.974;18.916;2023-09-07T08:30:15;3.67;;;2.22;;
51286;SDS011;37364;46.974;18.916;2023-09-07T08:32:52;2.03;;;1.80;;
51286;SDS011;37364;46.974;18.916;2023-09-07T08:35:28;2.47;;;2.00;;
51286;SDS011;37364;46.974;18.916;2023-09-07T08:38:02;3.30;;;2.42;;
51286;SDS011;37364;46.974;18.916;2023-09-07T08:40:38;1.55;;;1.45;;
51286;SDS011;37364;46.974;18.916;2023-09-07T08:43:11;2.78;;;2.28;;
51286;SDS011;37364;46.974;18.916;2023-09-07T08:45:45;2.67;;;2.10;;
51286;SDS011;37364;46.974;18.916;2023-09-07T08:48:20;3.75;;;2.60;;
51286;SDS011;37364;46.974;18.916;2023-09-07T08:50:51;3.35;;;1.98;;
51286;SDS011;37364;46.974;18.916;2023-09-07T08:53:22;3.15;;;2.05;;
51286;SDS011;37364;46.974;18.916;2023-09-07T08:55:53;3.00;;;2.08;;
51286;SDS011;37364;46.974;18.916;2023-09-07T08:58:26;1.90;;;1.70;;
51286;SDS011;37364;46.974;18.916;2023-09-07T09:00:59;3.55;;;1.50;;
51286;SDS011;37364;46.974;18.916;2023-09-07T09:03:33;1.55;;;1.45;;
51286;SDS011;37364;46.974;18.916;2023-09-07T09:06:05;1.67;;;1.52;;
51286;SDS011;37364;46.974;18.916;2023-09-07T09:08:46;1.98;;;1.77;;
51286;SDS011;37364;46.974;18.916;2023-09-07T09:11:19;2.05;;;1.60;;
51286;SDS011;37364;46.974;18.916;2023-09-07T09:13:53;2.35;;;1.88;;
51286;SDS011;37364;46.974;18.916;2023-09-07T09:16:24;3.78;;;1.80;;
51286;SDS011;37364;46.974;18.916;2023-09-07T09:18:56;1.85;;;1.70;;
51286;SDS011;37364;46.974;18.916;2023-09-07T09:21:27;2.88;;;2.17;;
51286;SDS011;37364;46.974;18.916;2023-09-07T09:23:58;2.47;;;2.08;;
51286;SDS011;37364;46.974;18.916;2023-09-07T09:26:29;1.65;;;1.55;;
51286;SDS011;37364;46.974;18.916;2023-09-07T09:29:03;1.35;;;1.27;;
51286;SDS011;37364;46.974;18.916;2023-09-07T09:31:33;1.95;;;1.55;;
51286;SDS011;37364;46.974;18.916;2023-09-07T09:34:04;2.05;;;1.70;;
51286;SDS011;37364;46.974;18.916;2023-09-07T09:36:35;1.48;;;1.38;;
51286;SDS011;37364;46.974;18.916;2023-09-07T09:39:07;3.53;;;1.92;;
51286;SDS011;37364;46.974;18.916;2023-09-07T09:41:39;1.35;;;1.25;;
51286;SDS011;37364;46.974;18.916;2023-09-07T09:44:11;7.40;;;2.03;;
51286;SDS011;37364;46.974;18.916;2023-09-07T09:46:43;4.32;;;1.50;;
51286;SDS011;37364;46.974;18.916;2023-09-07T09:49:16;3.90;;;1.83;;
51286;SDS011;37364;46.974;18.916;2023-09-07T09:51:49;2.53;;;1.73;;
51286;SDS011;37364;46.974;18.916;2023-09-07T09:54:20;1.70;;;1.60;;
51286;SDS011;37364;46.974;18.916;2023-09-07T09:56:51;3.97;;;1.67;;
51286;SDS011;37364;46.974;18.916;2023-09-07T09:59:24;2.45;;;1.80;;
51286;SDS011;37364;46.974;18.916;2023-09-07T10:01:54;1.23;;;1.15;;
51286;SDS011;37364;46.974;18.916;2023-09-07T10:04:32;1.60;;;1.50;;
51286;SDS011;37364;46.974;18.916;2023-09-07T10:07:04;2.08;;;1.20;;
51286;SDS011;37364;46.974;18.916;2023-09-07T10:09:35;6.32;;;1.65;;
51286;SDS011;37364;46.974;18.916;2023-09-07T10:12:11;1.27;;;1.17;;
51286;SDS011;37364;46.974;18.916;2023-09-07T10:14:46;1.67;;;1.30;;
51286;SDS011;37364;46.974;18.916;2023-09-07T10:17:24;3.38;;;1.75;;
51286;SDS011;37364;46.974;18.916;2023-09-07T10:20:01;1.80;;;1.70;;
51286;SDS011;37364;46.974;18.916;2023-09-07T10:22:35;1.15;;;1.10;;
51286;SDS011;37364;46.974;18.916;2023-09-07T10:25:06;1.45;;;1.20;;
51286;SDS011;37364;46.974;18.916;2023-09-07T10:27:48;1.38;;;1.27;;
51286;SDS011;37364;46.974;18.916;2023-09-07T10:30:21;1.80;;;1.38;;
51286;SDS011;37364;46.974;18.916;2023-09-07T10:33:02;1.65;;;1.55;;
51286;SDS011;37364;46.974;18.916;2023-09-07T10:35:34;3.10;;;1.73;;
51286;SDS011;37364;46.974;18.916;2023-09-07T10:38:05;2.03;;;1.38;;
51286;SDS011;37364;46.974;18.916;2023-09-07T10:40:36;2.08;;;1.65;;
51286;SDS011;37364;46.974;18.916;2023-09-07T10:43:08;1.50;;;1.38;;
51286;SDS011;37364;46.974;18.916;2023-09-07T10:45:43;1.55;;;1.35;;
51286;SDS011;37364;46.974;18.916;2023-09-07T10:48:17;2.55;;;1.42;;
51286;SDS011;37364;46.974;18.916;2023-09-07T10:50:48;1.52;;;1.40;;
51286;SDS011;37364;46.974;18.916;2023-09-07T10:53:24;1.55;;;1.33;;
51286;SDS011;37364;46.974;18.916;2023-09-07T10:55:58;1.25;;;1.15;;
51286;SDS011;37364;46.974;18.916;2023-09-07T10:58:32;4.10;;;1.15;;
51286;SDS011;37364;46.974;18.916;2023-09-07T11:01:08;1.27;;;1.10;;
51286;SDS011;37364;46.974;18.916;2023-09-07T11:03:43;1.60;;;1.50;;
51286;SDS011;37364;46.974;18.916;2023-09-07T11:06:14;1.30;;;1.20;;
51286;SDS011;37364;46.974;18.916;2023-09-07T11:08:49;2.42;;;1.45;;
51286;SDS011;37364;46.974;18.916;2023-09-07T11:11:20;1.40;;;1.20;;
51286;SDS011;37364;46.974;18.916;2023-09-07T11:13:51;1.35;;;1.25;;
51286;SDS011;37364;46.974;18.916;2023-09-07T11:16:25;1.27;;;1.17;;
51286;SDS011;37364;46.974;18.916;2023-09-07T11:18:56;1.55;;;1.42;;
51286;SDS011;37364;46.974;18.916;2023-09-07T11:21:27;1.50;;;1.40;;
51286;SDS011;37364;46.974;18.916;2023-09-07T11:23:58;2.05;;;1.55;;
51286;SDS011;37364;46.974;18.916;2023-09-07T11:26:42;1.67;;;1.13;;
51286;SDS011;37364;46.974;18.916;2023-09-07T11:29:13;1.60;;;1.50;;
51286;SDS011;37364;46.974;18.916;2023-09-07T11:31:48;1.73;;;1.63;;
51286;SDS011;37364;46.974;18.916;2023-09-07T11:34:18;1.80;;;1.20;;
51286;SDS011;37364;46.974;18.916;2023-09-07T11:36:49;3.50;;;1.42;;
51286;SDS011;37364;46.974;18.916;2023-09-07T11:39:19;1.77;;;1.40;;
51286;SDS011;37364;46.974;18.916;2023-09-07T11:41:49;0.82;;;0.82;;
51286;SDS011;37364;46.974;18.916;2023-09-07T11:44:20;1.90;;;1.65;;
51286;SDS011;37364;46.974;18.916;2023-09-07T11:46:53;1.50;;;1.20;;
51286;SDS011;37364;46.974;18.916;2023-09-07T11:49:23;1.38;;;1.20;;
51286;SDS011;37364;46.974;18.916;2023-09-07T11:51:54;2.03;;;1.67;;
51286;SDS011;37364;46.974;18.916;2023-09-07T11:54:24;3.03;;;1.48;;
51286;SDS011;37364;46.974;18.916;2023-09-07T11:57:07;1.25;;;1.13;;
51286;SDS011;37364;46.974;18.916;2023-09-07T11:59:39;1.33;;;1.05;;
51286;SDS011;37364;46.974;18.916;2023-09-07T12:02:26;1.60;;;1.27;;
51286;SDS011;37364;46.974;18.916;2023-09-07T12:04:57;1.42;;;1.30;;
51286;SDS011;37364;46.974;18.916;2023-09-07T12:10:00;1.90;;;1.23;;
51286;SDS011;37364;46.974;18.916;2023-09-07T12:12:31;3.55;;;1.42;;
51286;SDS011;37364;46.974;18.916;2023-09-07T12:15:02;5.53;;;1.80;;
51286;SDS011;37364;46.974;18.916;2023-09-07T12:17:35;1.75;;;1.63;;
51286;SDS011;37364;46.974;18.916;2023-09-07T12:22:37;1.38;;;1.27;;
51286;SDS011;37364;46.974;18.916;2023-09-07T12:25:08;1.48;;;1.38;;
51286;SDS011;37364;46.974;18.916;2023-09-07T12:27:45;1.08;;;1.05;;
51286;SDS011;37364;46.974;18.916;2023-09-07T12:30:20;2.38;;;1.65;;
51286;SDS011;37364;46.974;18.916;2023-09-07T12:32:56;1.60;;;1.50;;
51286;SDS011;37364;46.974;18.916;2023-09-07T12:35:27;1.95;;;1.50;;
51286;SDS011;37364;46.974;18.916;2023-09-07T12:37:57;1.17;;;1.00;;
51286;SDS011;37364;46.974;18.916;2023-09-07T12:40:28;1.45;;;1.20;;
51286;SDS011;37364;46.974;18.916;2023-09-07T12:43:01;3.75;;;1.33;;
51286;SDS011;37364;46.974;18.916;2023-09-07T12:45:32;1.67;;;1.40;;
51286;SDS011;37364;46.974;18.916;2023-09-07T12:48:06;2.17;;;1.70;;
51286;SDS011;37364;46.974;18.916;2023-09-07T12:50:36;1.42;;;0.98;;
51286;SDS011;37364;46.974;18.916;2023-09-07T12:53:07;1.20;;;1.20;;
51286;SDS011;37364;46.974;18.916;2023-09-07T12:55:37;1.33;;;1.20;;
51286;SDS011;37364;46.974;18.916;2023-09-07T12:58:08;1.55;;;1.45;;
51286;SDS011;37364;46.974;18.916;2023-09-07T13:00:38;1.25;;;1.15;;
51286;SDS011;37364;46.974;18.916;2023-09-07T13:03:15;3.33;;;1.70;;
51286;SDS011;37364;46.974;18.916;2023-09-07T13:05:45;1.55;;;1.45;;
51286;SDS011;37364;46.974;18.916;2023-09-07T13:08:16;1.77;;;1.67;;
51286;SDS011;37364;46.974;18.916;2023-09-07T13:10:47;2.72;;;1.33;;
51286;SDS011;37364;46.974;18.916;2023-09-07T13:13:17;1.60;;;1.20;;
51286;SDS011;37364;46.974;18.916;2023-09-07T13:15:49;2.05;;;1.50;;
51286;SDS011;37364;46.974;18.916;2023-09-07T13:18:22;1.67;;;1.58;;
51286;SDS011;37364;46.974;18.916;2023-09-07T13:20:53;1.50;;;1.40;;
51286;SDS011;37364;46.974;18.916;2023-09-07T13:23:26;3.33;;;1.30;;
51286;SDS011;37364;46.974;18.916;2023-09-07T13:25:58;1.27;;;1.17;;
51286;SDS011;37364;46.974;18.916;2023-09-07T13:28:31;1.67;;;1.40;;
51286;SDS011;37364;46.974;18.916;2023-09-07T13:31:01;2.75;;;1.92;;
51286;SDS011;37364;46.974;18.916;2023-09-07T13:33:36;1.38;;;1.27;;
51286;SDS011;37364;46.974;18.916;2023-09-07T13:36:06;2.83;;;1.30;;
51286;SDS011;37364;46.974;18.916;2023-09-07T13:38:37;2.75;;;1.33;;
51286;SDS011;37364;46.974;18.916;2023-09-07T13:41:08;5.15;;;1.60;;
51286;SDS011;37364;46.974;18.916;2023-09-07T13:43:39;5.05;;;1.67;;
51286;SDS011;37364;46.974;18.916;2023-09-07T13:46:10;4.43;;;1.48;;
51286;SDS011;37364;46.974;18.916;2023-09-07T13:48:44;1.67;;;1.50;;
51286;SDS011;37364;46.974;18.916;2023-09-07T13:51:15;2.58;;;1.60;;
51286;SDS011;37364;46.974;18.916;2023-09-07T13:53:46;1.38;;;1.27;;
51286;SDS011;37364;46.974;18.916;2023-09-07T13:56:17;1.52;;;1.42;;
51286;SDS011;37364;46.974;18.916;2023-09-07T13:58:48;1.40;;;1.30;;
51286;SDS011;37364;46.974;18.916;2023-09-07T14:01:20;1.85;;;1.50;;
51286;SDS011;37364;46.974;18.916;2023-09-07T14:03:54;1.85;;;1.25;;
51286;SDS011;37364;46.974;18.916;2023-09-07T14:06:25;2.88;;;1.70;;
51286;SDS011;37364;46.974;18.916;2023-09-07T14:08:56;1.30;;;1.20;;
51286;SDS011;37364;46.974;18.916;2023-09-07T14:11:27;2.03;;;1.77;;
51286;SDS011;37364;46.974;18.916;2023-09-07T14:16:30;1.65;;;1.17;;
51286;SDS011;37364;46.974;18.916;2023-09-07T14:19:04;1.60;;;1.50;;
51286;SDS011;37364;46.974;18.916;2023-09-07T14:21:35;1.40;;;1.30;;
51286;SDS011;37364;46.974;18.916;2023-09-07T14:24:05;1.48;;;1.38;;
51286;SDS011;37364;46.974;18.916;2023-09-07T14:26:39;2.13;;;1.33;;
51286;SDS011;37364;46.974;18.916;2023-09-07T14:29:09;1.42;;;1.27;;
51286;SDS011;37364;46.974;18.916;2023-09-07T14:31:40;1.80;;;1.33;;
51286;SDS011;37364;46.974;18.916;2023-09-07T14:34:16;3.58;;;1.00;;
51286;SDS011;37364;46.974;18.916;2023-09-07T14:36:47;1.60;;;1.45;;
51286;SDS011;37364;46.974;18.916;2023-09-07T14:39:18;1.90;;;1.30;;
51286;SDS011;37364;46.974;18.916;2023-09-07T14:41:51;1.60;;;1.50;;
51286;SDS011;37364;46.974;18.916;2023-09-07T14:44:22;1.35;;;1.30;;
51286;SDS011;37364;46.974;18.916;2023-09-07T14:46:53;1.75;;;1.65;;
51286;SDS011;37364;46.974;18.916;2023-09-07T14:49:27;2.58;;;1.80;;
51286;SDS011;37364;46.974;18.916;2023-09-07T14:51:57;1.25;;;1.20;;
51286;SDS011;37364;46.974;18.916;2023-09-07T14:54:28;1.70;;;1.58;;
51286;SDS011;37364;46.974;18.916;2023-09-07T14:56:59;2.80;;;2.13;;
51286;SDS011;37364;46.974;18.916;2023-09-07T14:59:30;2.13;;;1.23;;
51286;SDS011;37364;46.974;18.916;2023-09-07T15:02:01;2.95;;;2.08;;
51286;SDS011;37364;46.974;18.916;2023-09-07T15:04:34;3.42;;;2.08;;
51286;SDS011;37364;46.974;18.916;2023-09-07T15:07:05;1.13;;;1.13;;
51286;SDS011;37364;46.974;18.916;2023-09-07T15:09:37;1.20;;;1.10;;
51286;SDS011;37364;46.974;18.916;2023-09-07T15:12:07;6.43;;;1.33;;
51286;SDS011;37364;46.974;18.916;2023-09-07T15:14:38;2.38;;;1.77;;
51286;SDS011;37364;46.974;18.916;2023-09-07T15:17:10;0.80;;;0.80;;
51286;SDS011;37364;46.974;18.916;2023-09-07T15:19:44;1.52;;;1.30;;